Clover Valley, Nevada Weather observations

Data are for 10 minute period ending at time listed.
 Day   Time   Solar   Ave.   Ave.  Ave.  Vector  Max.   Baro.   Total    
  of    of     Rad.   Air    Rel.  Wind   Wind   Wind  Press.  Precip.   
Year   Day            Temp.  Hum.  Speed  Dir.   Gust                    
2015   (PST)  Kw/m2    F      %     mph   deg.    mph    mb.     in.     
-------------------------------------------------------------------------
 107    0:20   0.00   31.1    62    5.6    16     7.8   830.5    0.00 
 107    0:30   0.00   28.8    65    4.2   348     7.7   830.6    0.00 
 107    0:40   0.00   29.2    66    5.0   257     6.8   830.7    0.00 
 107    0:50   0.00   29.3    66    3.9   284     6.4   830.6    0.00 
 107    1:00   0.00   29.8    65    4.5   287     6.2   830.6    0.00 
 107    1:10   0.00   29.5    64    3.8   298     5.1   830.6    0.00 
 107    1:20   0.00   28.3    67    3.1   300     3.9   830.6    0.00 
 107    1:30   0.00   27.2    68    2.6   332     3.5   830.7    0.00 
 107    1:40   0.00   25.7    69    4.7    27     5.7   830.7    0.00 
 107    1:50   0.00   23.8    72    2.0    18     4.5   830.9    0.00 
 107    2:00   0.00   25.2    70    2.9    16     3.9   830.9    0.00 
 107    2:10   0.00   26.9    64    3.8    28     4.2   830.9    0.00 
 107    2:20   0.00   25.0    66    3.7   359     4.1   830.9    0.00 
 107    2:30   0.00   24.1    71    3.7   325     4.5   830.9    0.00 
 107    2:40   0.00   22.6    74    3.5   304     4.4   830.9    0.00 
 107    2:50   0.00   21.6    76    3.7    30     4.8   830.8    0.00 
 107    3:00   0.00   21.3    77    4.4    51     5.3   830.9    0.00 
 107    3:10   0.00   20.5    76    3.9    52     4.7   830.8    0.00 
 107    3:20   0.00   19.7    77    2.8     6     4.6   830.8    0.00 
 107    3:30   0.00   19.9    78    1.3     1     3.6   830.8    0.00 
 107    3:40   0.00   21.1    76    5.6   302     9.6   830.8    0.00 
 107    3:50   0.00   21.2    77    5.0   204     9.5   830.9    0.00 
 107    4:00   0.00   22.4    75    3.4   237     6.2   830.9    0.00 
 107    4:10   0.00   21.2    76    4.0   234     4.9   830.8    0.00 
 107    4:20   0.00   21.4    78    4.5   269     5.4   830.8    0.00 
 107    4:30   0.00   22.0    78    4.3   272     6.1   830.8    0.00 
 107    4:40   0.00   20.6    75    2.0   179     4.1   830.9    0.00 
 107    4:50   0.00   18.1    79    1.2   126     3.1   830.8    0.00 
 107    5:00   0.00   18.0    80    1.5    33     3.1   830.8    0.00 
 107    5:10   0.01   17.8    80    3.8    59     4.7   830.9    0.00 
 107    5:20   0.03   17.6    79    3.3    40     4.7   831.0    0.00 
 107    5:30   0.05   18.5    76    2.5    24     3.2   831.0    0.00 
 107    5:40   0.06   20.2    73    1.8    14     2.6   831.0    0.00 
 107    5:50   0.10   22.0    69    1.5    55     2.7   831.0    0.00 
 107    6:00   0.13   24.1    65    0.5   118     1.8   831.1    0.00 
 107    6:10   0.16   26.6    61    0.2    60     1.3   831.0    0.00 
 107    6:20   0.19   29.4    57    0.2   290     1.2   831.0    0.00 
 107    6:30   0.22   30.3    58    1.1   263     1.8   831.0    0.00 
 107    6:40   0.26   33.0    56    1.2   344     3.5   831.1    0.00 
 107    6:50   0.29   33.6    53    3.0    96     5.6   831.1    0.00 
 107    7:00   0.32   33.8    52    3.8   115     6.7   831.0    0.00 
 107    7:10   0.35   35.3    51    3.7   117     6.2   831.0    0.00 
 107    7:20   0.30   36.7    49    3.1   136     5.6   830.9    0.00 
 107    7:30   0.42   39.3    44    1.4   155     3.5   830.8    0.00 
 107    7:40   0.45   40.9    42    1.3   196     3.5   830.8    0.00 
 107    7:50   0.48   43.6    39    0.6   212     2.3   830.6    0.00 
 107    8:00   0.52   45.2    38    2.2   184     4.8   830.5    0.00 
 107    8:10   0.55   46.1    36    1.6   197     3.6   830.4    0.00 
 107    8:20   0.57   46.8    35    2.0   176     4.0   830.4    0.00 
 107    8:30   0.60   49.0    32    1.3   218     3.6   830.3    0.00 
 107    8:40   0.63   49.9    32    3.3   287     7.8   830.3    0.00 
 107    8:50   0.66   49.9    32    4.0   338     8.5   830.3    0.00 
 107    9:00   0.68   51.5    30    4.7   358    12.8   830.4    0.00 
 107    9:10   0.71   53.6    26   11.4   358    20.9   830.4    0.00 
 107    9:20   0.73   53.6    26   11.8   348    19.6   830.3    0.00 
 107    9:30   0.75   54.8    24   15.4   350    21.1   830.3    0.00 
 107    9:40   0.77   55.2    24   15.4     5    20.8   830.3    0.00 
 107    9:50   0.79   55.7    24   14.9   356    20.2   830.3    0.00 
 107   10:00   0.80   55.9    23   13.0   354    18.8   830.3    0.00 
 107   10:10   0.82   56.1    23   10.3   353    17.3   830.3    0.00 
 107   10:20   0.83   56.7    22   10.3   360    17.2   830.3    0.00 
 107   10:30   0.85   56.4    21   10.5   350    17.8   830.2    0.00 
 107   10:40   0.86   56.6    21   12.8     1    19.6   830.2    0.00 
 107   10:50   0.87   56.8    21   10.1   338    18.0   830.1    0.00 
 107   11:00   0.88   57.5    20    9.9   322    21.5   830.0    0.00 
 107   11:10   0.89   58.1    20   10.3   334    18.4   829.8    0.00 
 107   11:20   0.88   57.9    19    8.8   307    19.2   829.7    0.00 
 107   11:30   0.89   58.0    19   11.1   337    20.5   829.6    0.00 
 107   11:40   0.90   59.0    18    7.3   314    17.6   829.4    0.00 
 107   11:50   0.90   59.3    18   15.3   345    23.8   829.2    0.00 
 107   12:00   0.89   59.4    17    9.4   342    16.1   829.1    0.00 
 107   12:10   0.89   59.6    17    9.7   356    21.9   829.0    0.00 
 107   12:20   0.89   59.7    18   10.8   329    19.4   828.9    0.00 
 107   12:30   0.88   59.8    19    8.0   306    19.1   828.8    0.00 
 107   12:40   0.87   60.3    18   12.4   340    20.9   828.6    0.00 
 107   12:50   0.86   60.5    18   10.3   343    21.4   828.5    0.00 
 107   13:00   0.85   60.5    19   10.9   332    19.5   828.4    0.00 
 107   13:10   0.84   60.8    20   12.9   330    21.0   828.3    0.00 
 107   13:20   0.82   61.4    18    9.2   344    16.9   828.2    0.00 
 107   13:30   0.81   61.2    18    8.2   334    16.0   828.1    0.00 
 107   13:40   0.79   61.6    18   10.4   336    20.9   828.0    0.00 
 107   13:50   0.74   62.1    18   12.3   326    21.0   827.8    0.00 
 107   14:00   0.75   61.8    19    9.6   323    22.0   827.7    0.00 
 107   14:10   0.72   62.3    18   10.8   320    18.8   827.6    0.00 
 107   14:20   0.71   62.5    18   13.1   328    18.8   827.5    0.00 
 107   14:30   0.69   62.8    18   10.7   322    20.5   827.4    0.00 
 107   14:40   0.63   63.1    17   11.0   327    22.1   827.3    0.00 
 107   14:50   0.63   63.1    18   10.6   316    18.3   827.2    0.00 
 107   15:00   0.61   63.3    18   10.7   315    20.7   827.1    0.00 
 107   15:10   0.58   63.2    16   12.1   332    16.7   827.1    0.00 
 107   15:20   0.54   63.3    17   11.1   318    18.9   827.1    0.00 
 107   15:30   0.51   63.4    16   10.7   326    18.9   827.0    0.00 
 107   15:40   0.49   63.4    16   13.8   309    21.5   826.8    0.00 
 107   15:50   0.46   63.5    15   12.4   318    20.1   826.8    0.00 
 107   16:00   0.42   63.7    14   14.7   348    24.1   826.9    0.00 
 107   16:10   0.39   63.5    16   10.9   311    17.6   826.8    0.00 
 107   16:20   0.36   63.4    17   11.5   314    16.7   826.8    0.00 
 107   16:30   0.33   63.2    16   12.7   324    21.7   826.8    0.00 
 107   16:40   0.29   63.2    16   10.8   324    18.9   826.8    0.00 
 107   16:50   0.26   63.0    17    9.4   315    15.9   826.7    0.00 
 107   17:00   0.23   63.0    16   10.7   333    13.9   826.7    0.00 
 107   17:10   0.20   62.6    17    8.5   324    13.2   826.7    0.00 
 107   17:20   0.17   62.5    17    9.1   328    14.8   826.6    0.00 
 107   17:30   0.13   62.2    16   11.1   338    15.6   826.6    0.00 
 107   17:40   0.11   61.6    18    9.5   331    12.9   826.7    0.00 
 107   17:50   0.05   60.2    20    7.9   319    13.1   826.7    0.00 
 107   18:00   0.02   56.4    24    6.8   305     8.8   826.9    0.00 
 107   18:10   0.01   53.4    26    7.1   324     9.0   826.9    0.00 
 107   18:20   0.01   53.5    24    9.5   342    14.2   826.9    0.00 
 107   18:30   0.00   55.5    20   10.7   350    13.7   826.9    0.00 
 107   18:40   0.00   55.3    20   11.3   352    14.7   827.0    0.00 
 107   18:50   0.00   54.0    21    9.4   347    12.1   827.0    0.00 
 107   19:00   0.00   52.3    23    9.1   334    11.5   827.2    0.00 
 107   19:10   0.00   50.8    24    7.9   330     9.9   827.3    0.00 
 107   19:20   0.00   48.5    27    7.0   324     8.2   827.4    0.00 
 107   19:30   0.00   47.2    28    7.0   333     8.9   827.4    0.00 
 107   19:40   0.00   47.0    27    7.9   337    10.1   827.4    0.00 
 107   19:50   0.00   46.1    28    7.2   334     8.5   827.5    0.00 
 107   20:00   0.00   44.2    30    6.0   331     7.8   827.6    0.00 
 107   20:10   0.00   42.8    31    6.3   328     7.3   827.5    0.00 
 107   20:20   0.00   43.5    29    6.5   332     7.6   827.5    0.00 
 107   20:30   0.00   45.0    27    7.1   336     8.5   827.6    0.00 
 107   20:40   0.00   43.3    31    4.8   307     7.3   827.7    0.00 
 107   20:50   0.00   40.2    36    4.2   299     5.6   827.7    0.00 
 107   21:00   0.00   39.1    41    5.0   287     6.2   827.7    0.00 
 107   21:10   0.00   40.9    35    5.2   296     6.1   827.7    0.00 
 107   21:20   0.00   40.5    36    4.0   294     5.4   827.7    0.00 
 107   21:30   0.00   41.5    34    3.0   302     3.7   827.7    0.00 
 107   21:40   0.00   42.2    33    3.2   287     3.9   827.8    0.00 
 107   21:50   0.00   42.7    29    4.0   269     6.2   827.8    0.00 
 107   22:00   0.00   42.6    32    4.3   278     6.1   827.8    0.00 
 107   22:10   0.00   41.9    35    4.2   278     5.4   827.8    0.00 
 107   22:20   0.00   41.5    35    3.8   281     5.1   827.9    0.00 
 107   22:30   0.00   40.2    36    4.8   284     7.2   827.9    0.00 
 107   22:40   0.00   40.6    35    2.2   281     5.9   827.9    0.00 
 107   22:50   0.00   40.1    37    2.4   236     4.5   827.9    0.00 
 107   23:00   0.00   39.9    32    3.2   205     5.2   827.9    0.00 
 107   23:10   0.00   38.0    36    4.5   225     6.6   828.0    0.00 
 107   23:20   0.00   37.0    36    3.0   195     5.1   828.1    0.00 
 107   23:30   0.00   35.3    38    1.9   175     4.8   828.1    0.00 
 107   23:40   0.00   34.5    41    2.3   105     5.6   828.1    0.00 
 107   23:50   0.00   34.2    40    2.5    66     6.1   828.2    0.00 
 108    0:00   0.00   34.6    40    2.9    43     4.5   828.1    0.00 
 108    0:10   0.00   34.4    42    2.8   196     5.5   828.0    0.00 

Return to Clover Valley graphs page.


Western Regional Climate Center,wrcc@dri.edu